createdAt,value
2022-09-22T00:01:43.209Z,100890.84
2022-09-22T00:04:14.041Z,100888.47
2022-09-22T00:06:44.157Z,100879.94
2022-09-22T00:09:16.554Z,100886.22
2022-09-22T00:11:48.112Z,100875.06
2022-09-22T00:14:18.441Z,100891.97
2022-09-22T00:16:48.757Z,100895.88
2022-09-22T00:19:18.918Z,100889.03
2022-09-22T00:21:48.031Z,100885.56
2022-09-22T00:24:19.424Z,100890.84
2022-09-22T00:26:48.733Z,100891.84
2022-09-22T00:29:17.683Z,100890.44
2022-09-22T00:31:47.341Z,100890.16
2022-09-22T00:34:17.473Z,100886.81
2022-09-22T00:36:46.509Z,100886.34
2022-09-22T00:39:16.240Z,100889.00
2022-09-22T00:41:51.808Z,100883.16
2022-09-22T00:44:35.457Z,100883.28
2022-09-22T00:47:12.897Z,100886.91
2022-09-22T00:49:46.731Z,100884.53
2022-09-22T00:52:18.973Z,100888.16
2022-09-22T00:54:48.183Z,100871.97
2022-09-22T00:57:20.863Z,100871.97
2022-09-22T00:59:51.989Z,100870.84
2022-09-22T01:02:21.270Z,100870.00
2022-09-22T01:04:52.430Z,100868.75
2022-09-22T01:07:23.413Z,100872.38
2022-09-22T01:09:52.556Z,100871.53
2022-09-22T01:12:24.518Z,100863.84
2022-09-22T01:15:14.640Z,100863.25
2022-09-22T01:17:53.033Z,100877.81
2022-09-22T01:21:03.377Z,100886.72
2022-09-22T01:24:28.485Z,100886.44
2022-09-22T01:27:36.125Z,100891.16
2022-09-22T01:30:31.863Z,100881.66
2022-09-22T01:33:13.790Z,100888.91
2022-09-22T01:35:51.454Z,100887.34
2022-09-22T01:38:31.788Z,100878.84
2022-09-22T01:41:05.114Z,100863.88
2022-09-22T01:43:40.298Z,100884.56
2022-09-22T01:46:15.365Z,100886.66
2022-09-22T01:48:48.342Z,100882.72
2022-09-22T01:51:22.128Z,100874.63
2022-09-22T01:53:58.210Z,100872.09
2022-09-22T01:56:29.129Z,100863.44
2022-09-22T01:59:02.776Z,100856.75
2022-09-22T02:01:38.428Z,100863.59
2022-09-22T02:04:11.335Z,100857.88
2022-09-22T02:06:45.109Z,100854.25
2022-09-22T02:09:17.593Z,100858.16
2022-09-22T02:11:46.527Z,100857.81
2022-09-22T02:14:15.694Z,100855.44
2022-09-22T02:16:45.814Z,100862.69
2022-09-22T02:19:19.716Z,100861.97
2022-09-22T02:21:49.773Z,100861.97
2022-09-22T02:24:37.516Z,100860.31
2022-09-22T02:27:09.821Z,100865.59
2022-09-22T02:29:44.940Z,100860.84
2022-09-22T02:32:17.796Z,100854.69
2022-09-22T02:34:47.970Z,100866.13
2022-09-22T02:37:23.827Z,100867.09
2022-09-22T02:40:03.883Z,100863.75
2022-09-22T02:42:37.122Z,100860.53
2022-09-22T02:45:14.277Z,100851.56
2022-09-22T02:47:49.370Z,100858.28
2022-09-22T02:50:20.099Z,100867.47
2022-09-22T02:52:52.627Z,100844.53
2022-09-22T02:55:21.317Z,100860.03
2022-09-22T02:57:49.704Z,100856.00
2022-09-22T03:00:18.224Z,100857.78
2022-09-22T03:02:48.046Z,100857.06
2022-09-22T03:05:16.767Z,100853.72
2022-09-22T03:07:45.300Z,100851.47
2022-09-22T03:10:15.495Z,100860.25
2022-09-22T03:13:09.126Z,100872.78
2022-09-22T03:15:32.696Z,100871.94
2022-09-22T03:18:02.648Z,100871.25
2022-09-22T03:20:31.620Z,100869.81
2022-09-22T03:23:00.158Z,100876.22
2022-09-22T03:25:28.721Z,100875.38
2022-09-22T03:27:57.483Z,100878.41
2022-09-22T03:30:25.851Z,100872.28
2022-09-22T03:32:54.244Z,100863.19
2022-09-22T03:35:24.176Z,100877.25
2022-09-22T03:37:52.655Z,100877.66
2022-09-22T03:40:22.561Z,100868.53
2022-09-22T03:42:51.266Z,100868.81
2022-09-22T03:45:19.916Z,100869.88
2022-09-22T03:47:48.454Z,100879.63
2022-09-22T03:50:16.992Z,100886.84
2022-09-22T03:52:47.094Z,100884.34
2022-09-22T03:55:15.724Z,100870.91
2022-09-22T03:57:44.277Z,100869.09
2022-09-22T04:00:14.607Z,100871.38
2022-09-22T04:02:43.244Z,100877.63
2022-09-22T04:05:12.479Z,100884.88
2022-09-22T04:07:41.021Z,100879.13
2022-09-22T04:10:11.467Z,100882.59
2022-09-22T04:12:39.851Z,100895.22
2022-09-22T04:15:09.193Z,100889.09
2022-09-22T04:17:37.764Z,100897.16
2022-09-22T04:20:08.706Z,100886.84
2022-09-22T04:22:37.176Z,100893.09
2022-09-22T04:25:06.443Z,100893.44
2022-09-22T04:27:37.130Z,100887.44
2022-09-22T04:30:06.382Z,100893.00
2022-09-22T04:32:35.047Z,100898.41
2022-09-22T04:35:03.693Z,100894.34
2022-09-22T04:37:32.036Z,100896.28
2022-09-22T04:40:00.749Z,100894.69
2022-09-22T04:42:29.141Z,100898.56
2022-09-22T04:45:02.205Z,100906.97
2022-09-22T04:47:31.300Z,100898.72
2022-09-22T04:49:59.917Z,100899.69
2022-09-22T04:52:28.477Z,100902.44
2022-09-22T04:54:56.841Z,100905.06
2022-09-22T04:57:25.427Z,100907.00
2022-09-22T04:59:53.821Z,100899.22
2022-09-22T05:02:23.612Z,100905.56
2022-09-22T05:04:51.986Z,100903.16
2022-09-22T05:07:20.469Z,100903.28
2022-09-22T05:09:49.113Z,100906.31
2022-09-22T05:12:17.941Z,100903.19
2022-09-22T05:14:46.457Z,100901.50
2022-09-22T05:17:15.284Z,100903.28
2022-09-22T05:19:45.476Z,100902.56
2022-09-22T05:22:14.490Z,100902.56
2022-09-22T05:24:43.041Z,100901.75
2022-09-22T05:27:11.418Z,100913.13
2022-09-22T05:29:39.784Z,100912.44
2022-09-22T05:32:08.412Z,100910.16
2022-09-22T05:34:36.809Z,100909.19
2022-09-22T05:37:06.771Z,100910.88
2022-09-22T05:39:35.208Z,100923.38
2022-09-22T05:42:07.523Z,100914.47
2022-09-22T05:44:38.620Z,100917.22
2022-09-22T05:47:07.680Z,100921.44
2022-09-22T05:49:36.141Z,100906.09
2022-09-22T05:52:04.580Z,100918.56
2022-09-22T05:54:34.369Z,100920.97
2022-09-22T05:57:02.825Z,100926.00
2022-09-22T05:59:31.477Z,100923.84
2022-09-22T06:02:01.574Z,100924.19
2022-09-22T06:04:30.278Z,100934.28
2022-09-22T06:06:59.296Z,100927.06
2022-09-22T06:09:27.686Z,100932.22
2022-09-22T06:11:57.655Z,100929.34
2022-09-22T06:14:26.092Z,100932.94
2022-09-22T06:16:54.994Z,100921.19
2022-09-22T06:19:23.984Z,100931.50
2022-09-22T06:21:52.760Z,100940.16
2022-09-22T06:24:22.632Z,100940.16
2022-09-22T06:26:51.088Z,100941.34
2022-09-22T06:29:21.019Z,100941.59
2022-09-22T06:31:52.066Z,100941.13
2022-09-22T06:34:20.543Z,100945.56
2022-09-22T06:36:48.849Z,100952.41
2022-09-22T06:39:17.226Z,100958.19
2022-09-22T06:41:46.076Z,100954.09
2022-09-22T06:44:14.801Z,100958.88
2022-09-22T06:46:44.569Z,100963.66
2022-09-22T06:49:13.950Z,100963.31
2022-09-22T06:51:42.331Z,100967.25
2022-09-22T06:54:11.408Z,100965.19
2022-09-22T06:56:42.982Z,100967.84
2022-09-22T06:59:14.588Z,100972.03
2022-09-22T07:01:46.423Z,100973.47
2022-09-22T07:04:15.542Z,100972.97
2022-09-22T07:06:44.305Z,100964.81
2022-09-22T07:09:12.773Z,100967.56
2022-09-22T07:11:41.113Z,100972.94
2022-09-22T07:14:10.699Z,100967.16
2022-09-22T07:16:41.081Z,100970.25
2022-09-22T07:19:11.092Z,100975.31
2022-09-22T07:21:40.991Z,100967.63
2022-09-22T07:24:10.044Z,100970.22
2022-09-22T07:26:40.812Z,100965.94
2022-09-22T07:29:13.615Z,100979.38
2022-09-22T07:31:43.509Z,100969.97
2022-09-22T07:34:14.346Z,100970.03
2022-09-22T07:36:42.748Z,100972.88
2022-09-22T07:39:12.795Z,100977.25
2022-09-22T07:41:45.264Z,100976.59
2022-09-22T07:44:31.859Z,100973.53
2022-09-22T07:47:01.144Z,100976.41
2022-09-22T07:49:31.366Z,100979.09
2022-09-22T07:51:59.781Z,100963.50
2022-09-22T07:54:28.936Z,100966.91
2022-09-22T07:56:59.081Z,100970.69
2022-09-22T07:59:28.145Z,100965.59
2022-09-22T08:01:56.632Z,100966.88
2022-09-22T08:04:26.772Z,100966.34
2022-09-22T08:06:56.989Z,100961.38
2022-09-22T08:09:26.597Z,100955.38
2022-09-22T08:11:55.386Z,100967.84
2022-09-22T08:14:24.467Z,100967.53
2022-09-22T08:16:54.196Z,100974.25
2022-09-22T08:19:24.562Z,100975.66
2022-09-22T08:21:55.164Z,100971.47
2022-09-22T08:24:25.256Z,100970.75
2022-09-22T08:26:56.884Z,100968.66
2022-09-22T08:29:25.961Z,100968.38
2022-09-22T08:31:54.725Z,100967.22
2022-09-22T08:34:23.551Z,100957.91
2022-09-22T08:36:52.208Z,100962.34
2022-09-22T08:39:20.899Z,100965.41
2022-09-22T08:42:14.120Z,100971.81
2022-09-22T08:44:53.812Z,100969.97
2022-09-22T08:47:40.846Z,100969.66
2022-09-22T08:50:38.886Z,100974.13
2022-09-22T08:53:12.085Z,100972.94
2022-09-22T08:55:43.708Z,100969.38
2022-09-22T08:58:29.065Z,100970.84
2022-09-22T09:01:06.720Z,100968.97
2022-09-22T09:03:49.318Z,100960.41
2022-09-22T09:06:25.206Z,100970.34
2022-09-22T09:09:18.650Z,100958.03
2022-09-22T09:12:12.341Z,100961.25
2022-09-22T09:15:01.646Z,100959.31
2022-09-22T09:17:32.256Z,100967.69
2022-09-22T09:20:11.439Z,100959.34
2022-09-22T09:22:45.122Z,100952.16
2022-09-22T09:25:23.590Z,100953.84
2022-09-22T09:27:55.812Z,100949.41
2022-09-22T09:30:25.817Z,100959.91
2022-09-22T09:32:57.908Z,100953.59
2022-09-22T09:35:39.784Z,100957.66
2022-09-22T09:38:15.124Z,100955.91
2022-09-22T09:40:44.830Z,100958.50
2022-09-22T09:43:13.487Z,100954.75
2022-09-22T09:45:52.114Z,100959.72
2022-09-22T09:48:26.647Z,100952.56
2022-09-22T09:50:55.125Z,100956.09
2022-09-22T09:53:32.685Z,100955.28
2022-09-22T09:56:01.353Z,100951.50
2022-09-22T09:58:47.022Z,100955.25
2022-09-22T10:01:16.978Z,100942.59
2022-09-22T10:03:52.047Z,100945.75
2022-09-22T10:06:26.619Z,100947.94
2022-09-22T10:08:55.095Z,100948.56
2022-09-22T10:11:31.844Z,100943.41
2022-09-22T10:14:00.878Z,100940.25
2022-09-22T10:16:33.698Z,100942.03
2022-09-22T10:19:21.253Z,100945.75
2022-09-22T10:21:49.680Z,100944.84
2022-09-22T10:24:31.806Z,100942.91
2022-09-22T10:27:03.795Z,100948.94
2022-09-22T10:29:35.783Z,100947.97
2022-09-22T10:32:18.429Z,100942.53
2022-09-22T10:34:48.584Z,100933.66
2022-09-22T10:37:19.053Z,100943.03
2022-09-22T10:39:50.733Z,100944.69
2022-09-22T10:42:38.169Z,100942.28
2022-09-22T10:45:10.128Z,100945.28
2022-09-22T10:47:55.975Z,100943.53
2022-09-22T10:50:49.461Z,100947.38
2022-09-22T10:53:40.306Z,100937.34
2022-09-22T10:56:18.926Z,100932.97
2022-09-22T10:59:21.018Z,100943.97
2022-09-22T11:02:01.449Z,100938.50
2022-09-22T11:04:43.495Z,100939.00
2022-09-22T11:07:46.957Z,100937.66
2022-09-22T11:10:46.126Z,100932.94
2022-09-22T11:13:27.937Z,100926.41
2022-09-22T11:16:34.881Z,100927.78
2022-09-22T11:19:21.602Z,100926.94
2022-09-22T11:22:06.821Z,100918.25
2022-09-22T11:24:52.787Z,100911.06
2022-09-22T11:27:32.303Z,100909.47
2022-09-22T11:30:20.753Z,100900.44
2022-09-22T11:33:28.459Z,100913.72
2022-09-22T11:36:14.254Z,100905.75
2022-09-22T11:39:14.920Z,100903.25
2022-09-22T11:41:49.162Z,100903.72
2022-09-22T11:44:33.689Z,100904.22
2022-09-22T11:47:19.697Z,100894.91
2022-09-22T11:50:17.794Z,100893.84
2022-09-22T11:53:05.039Z,100901.84
2022-09-22T11:55:40.049Z,100899.31
2022-09-22T11:58:15.525Z,100890.94
2022-09-22T12:00:48.598Z,100897.72
2022-09-22T12:03:22.065Z,100889.94
2022-09-22T12:05:56.123Z,100878.50
2022-09-22T12:08:27.432Z,100888.00
2022-09-22T12:10:58.572Z,100877.19
2022-09-22T12:13:29.437Z,100889.09
2022-09-22T12:16:06.998Z,100874.88
2022-09-22T12:18:43.216Z,100880.88
2022-09-22T12:21:24.653Z,100879.31
2022-09-22T12:23:54.066Z,100880.06
2022-09-22T12:26:32.672Z,100874.38
2022-09-22T12:29:03.208Z,100878.78
2022-09-22T12:31:36.626Z,100871.31
2022-09-22T12:34:07.567Z,100862.00
2022-09-22T12:36:39.483Z,100857.31
2022-09-22T12:39:18.378Z,100863.72
2022-09-22T12:41:50.838Z,100853.97
2022-09-22T12:44:23.315Z,100847.56
2022-09-22T12:46:52.743Z,100847.03
2022-09-22T12:49:24.046Z,100843.88
2022-09-22T12:51:53.443Z,100852.63
2022-09-22T12:54:41.998Z,100854.16
2022-09-22T12:57:30.848Z,100850.59
2022-09-22T13:00:20.932Z,100851.97
2022-09-22T13:02:50.085Z,100861.59
2022-09-22T13:05:36.800Z,100859.16
2022-09-22T13:08:05.883Z,100850.75
2022-09-22T13:10:52.642Z,100857.28
2022-09-22T13:13:37.311Z,100855.03
2022-09-22T13:16:22.227Z,100851.75
2022-09-22T13:19:00.185Z,100851.41
2022-09-22T13:21:30.710Z,100850.88
2022-09-22T13:24:00.937Z,100845.53
2022-09-22T13:26:31.959Z,100844.56
2022-09-22T13:29:05.003Z,100842.06
2022-09-22T13:31:45.445Z,100845.69
2022-09-22T13:34:31.290Z,100845.28
2022-09-22T13:37:02.406Z,100840.94
2022-09-22T13:39:35.332Z,100837.88
2022-09-22T13:42:08.107Z,100841.31
2022-09-22T13:44:42.128Z,100835.34
2022-09-22T13:47:18.575Z,100836.66
2022-09-22T13:49:51.731Z,100834.19
2022-09-22T13:52:23.170Z,100826.53
2022-09-22T13:54:55.981Z,100841.13
2022-09-22T13:57:28.772Z,100838.59
2022-09-22T14:00:01.536Z,100828.50
2022-09-22T14:02:32.642Z,100825.84
2022-09-22T14:05:04.170Z,100834.19
2022-09-22T14:07:45.072Z,100830.06
2022-09-22T14:10:27.389Z,100827.63
2022-09-22T14:12:57.071Z,100822.50
2022-09-22T14:15:43.754Z,100819.97
2022-09-22T14:18:27.515Z,100820.34
2022-09-22T14:20:58.043Z,100815.63
2022-09-22T14:23:29.397Z,100815.19
2022-09-22T14:25:59.115Z,100815.03
2022-09-22T14:28:31.762Z,100814.00
2022-09-22T14:31:02.021Z,100808.09
2022-09-22T14:33:34.413Z,100811.28
2022-09-22T14:36:05.270Z,100810.97
2022-09-22T14:38:44.424Z,100804.38
2022-09-22T14:41:24.026Z,100803.25
2022-09-22T14:43:53.511Z,100812.47
2022-09-22T14:46:34.023Z,100805.91
2022-09-22T14:49:45.041Z,100804.53
2022-09-22T14:52:25.781Z,100804.16
2022-09-22T14:54:56.734Z,100803.00
2022-09-22T14:57:26.586Z,100799.69
2022-09-22T15:00:14.332Z,100804.06
2022-09-22T15:02:47.255Z,100803.38
2022-09-22T15:05:29.631Z,100800.69
2022-09-22T15:08:00.641Z,100798.41
2022-09-22T15:10:31.018Z,100793.16
2022-09-22T15:13:20.313Z,100797.63
2022-09-22T15:15:50.265Z,100804.81
2022-09-22T15:18:19.667Z,100800.00
2022-09-22T15:20:51.998Z,100792.34
2022-09-22T15:23:26.151Z,100791.78
2022-09-22T15:25:57.549Z,100800.09
2022-09-22T15:28:27.278Z,100794.44
2022-09-22T15:30:55.639Z,100797.22
2022-09-22T15:33:25.197Z,100791.06
2022-09-22T15:35:58.114Z,100801.47
2022-09-22T15:38:31.603Z,100784.06
2022-09-22T15:41:00.871Z,100794.16
2022-09-22T15:43:31.465Z,100788.13
2022-09-22T15:46:04.412Z,100788.19
2022-09-22T15:48:35.429Z,100791.91
2022-09-22T15:51:06.440Z,100794.13
2022-09-22T15:53:37.953Z,100790.97
2022-09-22T15:56:09.081Z,100793.00
2022-09-22T15:58:41.049Z,100791.75
2022-09-22T16:01:09.779Z,100785.94
2022-09-22T16:03:41.406Z,100791.34
2022-09-22T16:06:13.155Z,100792.78
2022-09-22T16:08:45.065Z,100792.75
2022-09-22T16:11:15.276Z,100800.34
2022-09-22T16:13:45.044Z,100795.47
2022-09-22T16:16:14.022Z,100797.22
2022-09-22T16:18:44.134Z,100787.63
2022-09-22T16:21:21.683Z,100788.78
2022-09-22T16:23:53.773Z,100797.75
2022-09-22T16:26:22.810Z,100793.53
2022-09-22T16:28:51.179Z,100778.53
2022-09-22T16:31:21.029Z,100789.81
2022-09-22T16:33:54.328Z,100798.22
2022-09-22T16:36:23.141Z,100800.59
2022-09-22T16:38:53.298Z,100802.75
2022-09-22T16:41:24.471Z,100806.97
2022-09-22T16:43:54.842Z,100798.38
2022-09-22T16:46:30.555Z,100799.31
2022-09-22T16:49:00.764Z,100802.09
2022-09-22T16:51:29.773Z,100804.09
2022-09-22T16:53:59.634Z,100803.16
2022-09-22T16:56:29.562Z,100803.25
2022-09-22T16:59:01.478Z,100797.50
2022-09-22T17:01:31.431Z,100794.09
2022-09-22T17:04:00.777Z,100804.72
2022-09-22T17:06:29.652Z,100799.53
2022-09-22T17:09:00.411Z,100803.22
2022-09-22T17:11:33.636Z,100805.03
2022-09-22T17:14:06.218Z,100788.78
2022-09-22T17:16:37.910Z,100799.78
2022-09-22T17:19:08.398Z,100805.41
2022-09-22T17:21:38.719Z,100806.94
2022-09-22T17:24:09.665Z,100816.25
2022-09-22T17:26:41.473Z,100799.38
2022-09-22T17:29:11.498Z,100812.47
2022-09-22T17:31:40.280Z,100809.84
2022-09-22T17:34:09.944Z,100814.78
2022-09-22T17:36:38.388Z,100803.13
2022-09-22T17:39:10.724Z,100809.88
2022-09-22T17:41:47.256Z,100803.91
2022-09-22T17:44:21.614Z,100808.13
2022-09-22T17:47:08.155Z,100810.97
2022-09-22T17:49:54.278Z,100809.31
2022-09-22T17:52:40.312Z,100809.69
2022-09-22T17:55:14.344Z,100811.91
2022-09-22T17:57:44.044Z,100805.56
2022-09-22T18:00:14.677Z,100811.56
2022-09-22T18:02:43.742Z,100815.41
2022-09-22T18:05:14.285Z,100815.06
2022-09-22T18:07:43.075Z,100815.41
2022-09-22T18:10:15.205Z,100810.22
2022-09-22T18:12:44.438Z,100810.38
2022-09-22T18:15:14.364Z,100820.72
2022-09-22T18:17:44.535Z,100822.38
2022-09-22T18:20:15.338Z,100824.19
2022-09-22T18:22:47.993Z,100821.19
2022-09-22T18:25:24.402Z,100822.00
2022-09-22T18:27:53.439Z,100822.81
2022-09-22T18:30:21.830Z,100825.47
2022-09-22T18:32:50.388Z,100819.88
2022-09-22T18:35:18.969Z,100825.38
2022-09-22T18:37:47.767Z,100829.81
2022-09-22T18:40:18.095Z,100825.44
2022-09-22T18:42:46.641Z,100830.75
2022-09-22T18:45:15.484Z,100827.22
2022-09-22T18:47:44.274Z,100831.97
2022-09-22T18:50:13.576Z,100823.13
2022-09-22T18:52:45.254Z,100823.88
2022-09-22T18:55:18.995Z,100825.69
2022-09-22T18:57:49.060Z,100830.09
2022-09-22T19:00:22.305Z,100828.19
2022-09-22T19:02:51.070Z,100831.81
2022-09-22T19:05:20.004Z,100835.63
2022-09-22T19:07:48.808Z,100831.59
2022-09-22T19:10:22.165Z,100821.13
2022-09-22T19:12:52.584Z,100826.41
2022-09-22T19:15:21.242Z,100827.63
2022-09-22T19:17:50.795Z,100829.81
2022-09-22T19:20:24.127Z,100829.63
2022-09-22T19:22:54.114Z,100838.56
2022-09-22T19:25:23.830Z,100831.69
2022-09-22T19:27:54.850Z,100829.75
2022-09-22T19:30:27.527Z,100844.72
2022-09-22T19:33:00.950Z,100842.66
2022-09-22T19:35:30.019Z,100833.72
2022-09-22T19:37:58.846Z,100840.41
2022-09-22T19:40:27.344Z,100845.13
2022-09-22T19:42:57.300Z,100844.31
2022-09-22T19:45:27.171Z,100840.22
2022-09-22T19:47:57.706Z,100844.63
2022-09-22T19:50:26.962Z,100842.09
2022-09-22T19:52:55.443Z,100841.72
2022-09-22T19:55:23.889Z,100842.59
2022-09-22T19:57:54.419Z,100842.38
2022-09-22T20:00:27.045Z,100839.75
2022-09-22T20:02:58.920Z,100838.81
2022-09-22T20:05:30.714Z,100834.66
2022-09-22T20:07:59.205Z,100841.06
2022-09-22T20:10:27.614Z,100835.53
2022-09-22T20:12:56.153Z,100832.59
2022-09-22T20:15:27.867Z,100833.31
2022-09-22T20:17:56.380Z,100840.88
2022-09-22T20:20:27.151Z,100836.84
2022-09-22T20:23:00.536Z,100838.53
2022-09-22T20:25:31.395Z,100831.16
2022-09-22T20:28:00.444Z,100835.38
2022-09-22T20:30:30.420Z,100836.63
2022-09-22T20:32:59.423Z,100831.91
2022-09-22T20:35:28.411Z,100827.13
2022-09-22T20:37:58.384Z,100823.06
2022-09-22T20:40:27.438Z,100826.34
2022-09-22T20:42:55.907Z,100831.31
2022-09-22T20:45:25.039Z,100822.41
2022-09-22T20:47:56.271Z,100824.97
2022-09-22T20:50:24.762Z,100827.47
2022-09-22T20:52:53.853Z,100829.03
2022-09-22T20:55:22.344Z,100833.66
2022-09-22T20:57:50.833Z,100830.19
2022-09-22T21:00:19.406Z,100835.66
2022-09-22T21:02:47.887Z,100829.41
2022-09-22T21:05:18.948Z,100828.69
2022-09-22T21:07:47.546Z,100828.28
2022-09-22T21:10:41.486Z,100834.03
2022-09-22T21:13:10.290Z,100828.97
2022-09-22T21:15:39.504Z,100838.19
2022-09-22T21:18:08.178Z,100830.91
2022-09-22T21:20:38.096Z,100830.66
2022-09-22T21:23:06.810Z,100823.09
2022-09-22T21:25:35.634Z,100822.78
2022-09-22T21:28:04.430Z,100827.53
2022-09-22T21:30:32.842Z,100831.41
2022-09-22T21:33:02.879Z,100837.28
2022-09-22T21:35:31.527Z,100820.81
2022-09-22T21:38:01.923Z,100823.88
2022-09-22T21:40:30.434Z,100821.91
2022-09-22T21:42:59.334Z,100821.31
2022-09-22T21:45:27.991Z,100829.53
2022-09-22T21:47:56.459Z,100813.50
2022-09-22T21:50:24.941Z,100816.41
2022-09-22T21:52:54.069Z,100815.72
2022-09-22T21:55:24.162Z,100820.97
2022-09-22T21:57:54.250Z,100821.38
2022-09-22T22:00:48.013Z,100809.50
2022-09-22T22:03:42.307Z,100817.41
2022-09-22T22:06:13.731Z,100815.03
2022-09-22T22:08:45.343Z,100815.41
2022-09-22T22:11:19.557Z,100816.66
2022-09-22T22:13:48.241Z,100818.75
2022-09-22T22:16:16.764Z,100811.06
2022-09-22T22:18:45.481Z,100806.03
2022-09-22T22:21:16.061Z,100809.91
2022-09-22T22:23:46.233Z,100800.41
2022-09-22T22:26:20.306Z,100811.41
2022-09-22T22:28:50.516Z,100793.41
2022-09-22T22:31:21.653Z,100804.81
2022-09-22T22:33:51.739Z,100798.38
2022-09-22T22:36:20.333Z,100800.31
2022-09-22T22:38:48.807Z,100801.44
2022-09-22T22:41:18.697Z,100793.00
2022-09-22T22:43:48.237Z,100799.69
2022-09-22T22:46:19.146Z,100793.09
2022-09-22T22:48:49.184Z,100799.59
2022-09-22T22:51:22.001Z,100794.38
2022-09-22T22:53:51.055Z,100787.16
2022-09-22T22:56:22.761Z,100789.03
2022-09-22T22:58:52.516Z,100794.31
2022-09-22T23:01:22.988Z,100792.56
2022-09-22T23:03:53.685Z,100792.53
2022-09-22T23:06:24.422Z,100787.97
2022-09-22T23:08:53.874Z,100791.59
2022-09-22T23:11:27.559Z,100793.69
2022-09-22T23:13:59.852Z,100800.06
2022-09-22T23:16:30.046Z,100801.53
2022-09-22T23:19:01.505Z,100791.09
2022-09-22T23:21:31.119Z,100788.69
2022-09-22T23:24:00.106Z,100793.53
2022-09-22T23:26:30.359Z,100786.25
2022-09-22T23:28:59.725Z,100785.91
2022-09-22T23:31:28.417Z,100790.03
2022-09-22T23:33:57.777Z,100797.50
2022-09-22T23:36:28.367Z,100777.72
2022-09-22T23:38:57.891Z,100782.41
2022-09-22T23:41:26.964Z,100782.09
2022-09-22T23:43:56.883Z,100778.75
2022-09-22T23:46:25.411Z,100776.34
2022-09-22T23:48:55.751Z,100768.78
2022-09-22T23:51:24.680Z,100762.47
2022-09-22T23:53:53.293Z,100770.78
2022-09-22T23:56:21.793Z,100772.69
2022-09-22T23:58:50.302Z,100779.19
